Time;durP1;ratioP1;P1;durP2;ratioP2;P2;SDS_P1;SDS_P2;PMS_P1;PMS_P2;Temp;Humidity;BMP_temperature;BMP_pressure;BME280_temperature;BME280_humidity;BME280_pressure;Samples;Min_cycle;Max_cycle;Signal;HPM_P1;HPM_P2
2021/06/23 00:00:37;;;;;;;2.83;2.00;;;24.30;44.00;;;;;;5125564;27;20474;-75
2021/06/23 00:03:06;;;;;;;4.40;1.87;;;24.30;44.00;;;;;;5124593;27;20439;-75
2021/06/23 00:05:34;;;;;;;1.83;1.73;;;24.30;44.00;;;;;;5125710;27;20435;-74
2021/06/23 00:08:03;;;;;;;1.80;1.70;;;24.30;44.00;;;;;;5126103;27;20447;-75
2021/06/23 00:10:31;;;;;;;3.67;2.03;;;24.30;44.00;;;;;;5125365;27;20475;-75
2021/06/23 00:13:03;;;;;;;2.47;1.97;;;24.30;44.00;;;;;;5125336;27;20542;-75
2021/06/23 00:15:32;;;;;;;4.63;2.03;;;24.20;43.90;;;;;;5125796;27;20414;-75
2021/06/23 00:18:00;;;;;;;1.67;1.57;;;24.20;44.00;;;;;;5125046;27;20519;-75
2021/06/23 00:20:30;;;;;;;3.23;1.93;;;24.20;43.90;;;;;;5125170;27;20453;-74
2021/06/23 00:22:58;;;;;;;1.60;1.50;;;24.20;43.90;;;;;;5124834;27;20431;-75
2021/06/23 00:25:26;;;;;;;3.60;2.13;;;24.20;43.90;;;;;;5124992;27;20545;-74
2021/06/23 00:27:54;;;;;;;4.57;1.90;;;24.20;44.00;;;;;;5140768;27;20434;-75
2021/06/23 00:30:23;;;;;;;1.83;1.73;;;24.20;44.00;;;;;;5145471;27;20409;-74
2021/06/23 00:32:53;;;;;;;1.83;1.73;;;24.10;43.90;;;;;;5145346;27;20404;-75
2021/06/23 00:35:21;;;;;;;1.87;1.70;;;24.10;43.80;;;;;;5145474;27;20497;-75
2021/06/23 00:37:50;;;;;;;1.63;1.53;;;24.10;43.90;;;;;;5145422;27;20452;-74
2021/06/23 00:40:18;;;;;;;2.73;1.80;;;24.10;43.90;;;;;;5144819;27;20469;-74
2021/06/23 00:42:46;;;;;;;2.60;1.93;;;24.10;43.90;;;;;;5144956;27;20404;-75
2021/06/23 00:45:15;;;;;;;1.40;1.30;;;24.10;43.90;;;;;;5145418;27;20428;-75
2021/06/23 00:47:45;;;;;;;3.53;2.03;;;24.00;43.80;;;;;;5127552;27;20466;-75
2021/06/23 00:50:17;;;;;;;1.93;1.80;;;24.00;43.80;;;;;;5124682;27;20455;-74
2021/06/23 00:52:45;;;;;;;2.90;1.53;;;24.00;43.80;;;;;;5123811;27;20514;-75
2021/06/23 00:55:20;;;;;;;2.93;1.80;;;24.00;43.80;;;;;;5124766;28;20586;-75
2021/06/23 00:57:49;;;;;;;1.60;1.50;;;24.00;43.70;;;;;;5124948;28;20427;-74
2021/06/23 01:00:18;;;;;;;2.10;1.90;;;24.00;43.70;;;;;;5124771;28;20515;-75
2021/06/23 01:02:47;;;;;;;1.93;1.73;;;24.00;43.80;;;;;;5124392;28;20550;-75
2021/06/23 01:05:15;;;;;;;1.90;1.80;;;24.00;43.80;;;;;;5124429;28;20496;-75
2021/06/23 01:07:43;;;;;;;1.80;1.70;;;23.90;43.60;;;;;;5124705;28;20443;-75
2021/06/23 01:10:12;;;;;;;2.10;1.50;;;23.90;43.70;;;;;;5124366;28;20450;-75
2021/06/23 01:12:57;;;;;;;2.70;1.53;;;23.90;43.70;;;;;;5128313;27;20439;-75
2021/06/23 01:15:25;;;;;;;1.73;1.63;;;23.90;43.80;;;;;;5130858;27;20448;-75
2021/06/23 01:17:55;;;;;;;1.60;1.50;;;23.90;43.80;;;;;;5146902;27;20437;-75
2021/06/23 01:20:23;;;;;;;3.60;1.40;;;23.90;43.80;;;;;;5148639;27;20494;-75
2021/06/23 01:22:53;;;;;;;2.67;1.67;;;23.90;43.80;;;;;;5147838;27;20416;-75
2021/06/23 01:25:21;;;;;;;1.60;1.47;;;23.90;43.80;;;;;;5148420;27;20451;-76
2021/06/23 01:27:49;;;;;;;2.23;1.50;;;23.90;43.80;;;;;;5147995;27;20537;-76
2021/06/23 01:30:18;;;;;;;1.50;1.40;;;23.80;43.70;;;;;;5148404;27;20438;-76
2021/06/23 01:32:47;;;;;;;2.40;1.70;;;23.80;43.80;;;;;;5148056;27;20430;-76
2021/06/23 01:35:15;;;;;;;1.97;1.53;;;23.80;43.70;;;;;;5148104;27;20418;-76
2021/06/23 01:37:43;;;;;;;2.67;1.50;;;23.80;43.70;;;;;;5148548;27;20542;-76
2021/06/23 01:40:14;;;;;;;1.80;1.37;;;23.80;43.70;;;;;;5148311;27;20478;-76
2021/06/23 01:42:42;;;;;;;1.47;1.37;;;23.80;43.80;;;;;;5138915;27;20471;-76
2021/06/23 01:45:12;;;;;;;1.57;1.30;;;23.80;43.80;;;;;;5128072;27;20435;-76
2021/06/23 01:47:40;;;;;;;2.10;1.53;;;23.80;44.40;;;;;;5127620;27;20531;-75
2021/06/23 01:50:09;;;;;;;1.67;1.30;;;23.80;43.70;;;;;;5127810;27;20535;-76
2021/06/23 01:52:37;;;;;;;1.47;1.37;;;23.80;43.70;;;;;;5138917;27;20448;-76
2021/06/23 01:55:06;;;;;;;1.70;1.60;;;23.70;43.50;;;;;;5144063;27;20465;-77
2021/06/23 01:57:39;;;;;;;2.67;1.47;;;23.70;43.60;;;;;;5147231;27;20400;-76
2021/06/23 02:00:12;;;;;;;2.00;1.40;;;23.70;43.60;;;;;;5127773;27;20455;-76
2021/06/23 02:02:44;;;;;;;2.20;1.50;;;23.70;43.70;;;;;;5127042;27;20445;-76
2021/06/23 02:05:18;;;;;;;2.13;1.83;;;23.70;43.60;;;;;;5132857;27;20485;-76
2021/06/23 02:07:58;;;;;;;1.47;1.30;;;23.70;43.60;;;;;;5139880;27;20441;-75
2021/06/23 02:10:51;;;;;;;2.80;1.50;;;23.70;43.70;;;;;;5135816;27;20429;-74
2021/06/23 02:14:01;;;;;;;1.87;1.40;;;23.70;43.60;;;;;;5115157;27;20461;-75
2021/06/23 02:16:30;;;;;;;1.53;1.40;;;23.70;43.70;;;;;;5136467;27;20505;-74
2021/06/23 02:19:02;;;;;;;1.50;1.40;;;23.70;43.70;;;;;;5145740;27;20444;-74
2021/06/23 02:21:30;;;;;;;1.57;1.47;;;23.70;43.70;;;;;;5141760;27;20497;-75
2021/06/23 02:23:59;;;;;;;3.10;1.60;;;23.70;43.80;;;;;;5137391;27;20457;-74
2021/06/23 02:26:27;;;;;;;1.40;1.30;;;23.70;43.80;;;;;;5135951;27;20496;-74
2021/06/23 02:28:55;;;;;;;1.73;1.57;;;23.70;43.80;;;;;;5149285;27;20439;-75
2021/06/23 02:31:24;;;;;;;1.20;1.10;;;23.60;43.70;;;;;;5148143;27;20533;-75
2021/06/23 02:33:54;;;;;;;1.30;1.20;;;23.70;43.80;;;;;;5146613;27;20465;-74
2021/06/23 02:36:22;;;;;;;2.73;1.37;;;23.70;44.30;;;;;;5147237;27;20442;-75
2021/06/23 02:38:52;;;;;;;1.60;1.37;;;23.70;43.70;;;;;;5147435;27;20441;-75
2021/06/23 02:41:20;;;;;;;2.50;1.23;;;23.70;43.80;;;;;;5146511;27;20466;-75
2021/06/23 02:43:48;;;;;;;1.50;1.40;;;23.70;43.80;;;;;;5147186;27;20490;-75
2021/06/23 02:46:16;;;;;;;2.30;1.20;;;23.70;43.70;;;;;;5147134;27;20498;-75
2021/06/23 02:48:44;;;;;;;1.93;1.50;;;23.60;43.60;;;;;;5126767;27;20435;-75
2021/06/23 02:51:19;;;;;;;2.00;1.40;;;23.60;43.60;;;;;;5126397;27;20439;-75
2021/06/23 02:53:47;;;;;;;1.53;1.40;;;23.60;43.60;;;;;;5126356;27;20426;-76
2021/06/23 02:56:16;;;;;;;1.83;1.17;;;23.60;43.70;;;;;;5126281;27;20440;-75
2021/06/23 02:58:44;;;;;;;1.67;1.57;;;23.60;43.70;;;;;;5126258;27;20398;-75
2021/06/23 03:01:12;;;;;;;1.30;1.20;;;23.60;43.60;;;;;;5127195;27;20502;-75
2021/06/23 03:03:40;;;;;;;1.70;1.50;;;23.60;43.70;;;;;;5133535;27;20409;-74
2021/06/23 03:06:09;;;;;;;2.33;1.40;;;23.60;43.80;;;;;;5146452;27;20433;-74
2021/06/23 03:08:38;;;;;;;1.97;1.53;;;23.60;43.70;;;;;;5146570;27;20417;-74
2021/06/23 03:11:06;;;;;;;1.50;1.20;;;23.50;43.60;;;;;;5146501;27;20426;-74
2021/06/23 03:13:34;;;;;;;1.93;1.40;;;23.60;44.40;;;;;;5146276;27;20429;-74
2021/06/23 03:16:04;;;;;;;2.20;1.43;;;23.60;43.80;;;;;;5130089;27;20415;-74
2021/06/23 03:18:33;;;;;;;2.87;1.60;;;23.60;43.60;;;;;;5125928;27;20405;-77
2021/06/23 03:21:01;;;;;;;1.90;1.70;;;23.60;43.80;;;;;;5125813;27;20504;-75
2021/06/23 03:23:29;;;;;;;1.93;1.67;;;23.60;43.70;;;;;;5125275;27;20532;-74
2021/06/23 03:25:58;;;;;;;1.60;1.30;;;23.60;43.80;;;;;;5125368;27;20439;-76
2021/06/23 03:28:26;;;;;;;1.70;1.50;;;23.50;43.70;;;;;;5126154;27;20503;-75
2021/06/23 03:30:54;;;;;;;2.03;1.53;;;23.50;43.60;;;;;;5124928;27;20447;-74
2021/06/23 03:33:22;;;;;;;1.30;1.10;;;23.50;43.60;;;;;;5125485;27;20486;-74
2021/06/23 03:35:50;;;;;;;1.97;1.40;;;23.50;43.60;;;;;;5125009;27;20413;-74
2021/06/23 03:38:18;;;;;;;1.43;1.33;;;23.60;43.70;;;;;;5133390;27;20417;-75
2021/06/23 03:40:46;;;;;;;1.10;1.10;;;23.50;43.70;;;;;;5137960;27;20437;-75
2021/06/23 03:43:17;;;;;;;1.20;1.10;;;23.50;43.70;;;;;;5145753;27;20509;-75
2021/06/23 03:45:45;;;;;;;1.40;1.30;;;23.50;43.70;;;;;;5126598;27;20410;-75
2021/06/23 03:48:13;;;;;;;3.47;1.70;;;23.50;43.70;;;;;;5124978;27;20435;-75
2021/06/23 03:50:42;;;;;;;1.27;1.17;;;23.50;43.80;;;;;;5125530;27;20427;-74
2021/06/23 03:53:10;;;;;;;1.93;1.30;;;23.50;43.70;;;;;;5124847;27;20463;-75
2021/06/23 03:55:38;;;;;;;2.90;1.20;;;23.50;43.80;;;;;;5124798;27;20409;-74
2021/06/23 03:58:07;;;;;;;1.50;1.40;;;23.50;43.70;;;;;;5124941;27;20437;-75
2021/06/23 04:00:36;;;;;;;2.60;1.60;;;23.50;43.80;;;;;;5125534;27;20443;-75
2021/06/23 04:03:05;;;;;;;1.60;1.50;;;23.50;43.90;;;;;;5132785;27;20502;-74
2021/06/23 04:05:33;;;;;;;1.33;1.20;;;23.50;43.80;;;;;;5139051;27;20463;-74
2021/06/23 04:08:04;;;;;;;2.50;1.60;;;23.50;43.90;;;;;;5155954;27;20430;-75
2021/06/23 04:10:38;;;;;;;1.97;1.37;;;23.50;43.90;;;;;;5165188;27;20428;-75
2021/06/23 04:13:08;;;;;;;1.33;1.20;;;23.50;43.90;;;;;;5141810;27;20417;-75
2021/06/23 04:15:37;;;;;;;2.40;1.10;;;23.60;44.00;;;;;;5145204;27;20426;-75
2021/06/23 04:18:05;;;;;;;1.50;1.40;;;23.60;44.00;;;;;;5144841;27;20471;-75
2021/06/23 04:20:33;;;;;;;2.07;1.30;;;23.60;43.90;;;;;;5144779;27;20494;-75
2021/06/23 04:23:01;;;;;;;2.20;1.30;;;23.70;44.10;;;;;;5144770;27;20481;-75
2021/06/23 04:25:30;;;;;;;2.77;1.70;;;23.70;44.20;;;;;;5145276;27;20413;-75
2021/06/23 04:27:58;;;;;;;2.00;1.50;;;23.70;44.10;;;;;;5145018;27;20432;-75
2021/06/23 04:30:26;;;;;;;1.87;1.60;;;23.70;44.20;;;;;;5145472;27;20490;-75
2021/06/23 04:32:56;;;;;;;1.33;1.23;;;23.60;44.10;;;;;;5144882;27;20462;-75
2021/06/23 04:35:24;;;;;;;1.57;1.47;;;23.60;44.20;;;;;;5145382;27;20421;-75
2021/06/23 04:37:52;;;;;;;2.20;1.50;;;23.60;44.20;;;;;;5145071;27;20455;-75
2021/06/23 04:40:20;;;;;;;2.50;1.80;;;23.70;44.40;;;;;;5145246;27;20479;-75
2021/06/23 04:42:48;;;;;;;3.90;1.80;;;23.70;44.50;;;;;;5144638;27;20441;-76
2021/06/23 04:45:17;;;;;;;1.63;1.50;;;23.80;44.70;;;;;;5144920;27;20484;-75
2021/06/23 04:47:45;;;;;;;2.80;1.40;;;23.80;44.70;;;;;;5139773;27;20443;-75
2021/06/23 04:50:16;;;;;;;3.33;1.60;;;23.80;44.90;;;;;;5140083;27;20484;-75
2021/06/23 04:52:44;;;;;;;3.20;1.77;;;23.80;44.90;;;;;;5144775;27;20430;-75
2021/06/23 04:55:16;;;;;;;2.20;1.70;;;23.80;45.00;;;;;;5144094;27;20438;-75
2021/06/23 04:57:44;;;;;;;2.10;1.47;;;23.90;44.90;;;;;;5152763;27;20420;-75
2021/06/23 05:00:13;;;;;;;3.60;1.30;;;23.80;45.00;;;;;;5145616;27;20433;-76
2021/06/23 05:02:41;;;;;;;2.40;1.50;;;23.80;45.00;;;;;;5149133;27;20501;-75
2021/06/23 05:05:10;;;;;;;1.77;1.67;;;23.90;44.80;;;;;;5133105;27;20465;-75
2021/06/23 05:07:39;;;;;;;1.60;1.50;;;23.90;45.20;;;;;;5156990;27;20425;-75
2021/06/23 05:10:08;;;;;;;2.00;1.57;;;23.80;45.30;;;;;;5145099;27;20442;-76
2021/06/23 05:12:36;;;;;;;1.90;1.40;;;23.90;46.20;;;;;;5144210;27;20420;-76
2021/06/23 05:15:05;;;;;;;2.80;1.40;;;23.90;45.60;;;;;;5144834;27;20433;-76
2021/06/23 05:17:33;;;;;;;1.63;1.50;;;23.90;45.40;;;;;;5144686;27;20477;-76
2021/06/23 05:20:01;;;;;;;1.77;1.57;;;24.00;45.50;;;;;;5129800;27;20434;-76
2021/06/23 05:22:29;;;;;;;1.90;1.40;;;24.00;45.40;;;;;;5142170;27;20562;-76
2021/06/23 05:25:00;;;;;;;2.10;1.37;;;24.00;45.60;;;;;;5142469;27;20441;-76
2021/06/23 05:27:30;;;;;;;2.30;1.50;;;24.10;45.50;;;;;;5144068;27;20461;-76
2021/06/23 05:29:58;;;;;;;1.47;1.37;;;24.10;45.40;;;;;;5144701;27;20520;-76
2021/06/23 05:32:26;;;;;;;1.70;1.60;;;24.10;45.30;;;;;;5140506;27;20462;-76
2021/06/23 05:34:55;;;;;;;2.57;1.30;;;24.10;45.40;;;;;;5141988;27;20454;-76
2021/06/23 05:37:23;;;;;;;1.87;1.30;;;24.10;45.60;;;;;;5144417;27;20449;-76
2021/06/23 05:39:51;;;;;;;2.50;1.40;;;24.10;45.60;;;;;;5144284;27;20549;-76
2021/06/23 05:42:20;;;;;;;1.83;1.20;;;24.20;45.80;;;;;;5143026;27;20431;-76
2021/06/23 05:44:48;;;;;;;1.70;1.60;;;24.10;45.80;;;;;;5148865;27;20448;-76
2021/06/23 05:47:16;;;;;;;1.37;1.27;;;24.20;46.00;;;;;;5156716;27;20441;-76
2021/06/23 05:49:44;;;;;;;3.60;1.80;;;24.20;46.10;;;;;;5142200;27;20443;-76
2021/06/23 05:52:12;;;;;;;2.00;1.63;;;24.20;46.10;;;;;;5150215;27;20429;-76
2021/06/23 05:54:40;;;;;;;1.50;1.40;;;24.20;45.80;;;;;;5155448;27;20423;-75
2021/06/23 05:57:08;;;;;;;5.80;1.60;;;24.30;45.70;;;;;;5144076;27;20457;-76
2021/06/23 05:59:38;;;;;;;5.03;2.83;;;24.30;45.80;;;;;;5144676;27;20426;-76
2021/06/23 06:02:06;;;;;;;1.53;1.43;;;24.30;46.00;;;;;;5137044;27;20423;-76
2021/06/23 06:04:34;;;;;;;2.97;1.47;;;24.30;46.20;;;;;;5126822;27;20466;-78
2021/06/23 06:07:02;;;;;;;2.50;1.50;;;24.30;46.10;;;;;;5127141;27;20442;-76
2021/06/23 06:09:31;;;;;;;4.57;1.43;;;24.30;46.10;;;;;;5127357;27;20446;-75
2021/06/23 06:11:59;;;;;;;1.83;1.70;;;24.30;45.90;;;;;;5126794;27;20574;-77
2021/06/23 06:14:27;;;;;;;5.03;2.13;;;24.30;46.10;;;;;;5126759;27;20439;-75
2021/06/23 06:16:56;;;;;;;4.50;1.60;;;24.30;46.20;;;;;;5126535;27;20430;-77
2021/06/23 06:19:24;;;;;;;14.33;2.37;;;24.40;46.50;;;;;;5131135;27;20441;-73
2021/06/23 06:21:52;;;;;;;13.50;2.40;;;24.50;48.10;;;;;;5132197;27;20439;-74
2021/06/23 06:24:21;;;;;;;7.37;1.87;;;25.00;48.10;;;;;;5126724;27;20523;-72
2021/06/23 06:26:49;;;;;;;8.40;2.13;;;25.40;47.80;;;;;;5136996;27;20465;-73
2021/06/23 06:29:17;;;;;;;6.70;2.23;;;25.60;47.40;;;;;;5147573;27;20422;-73
2021/06/23 06:31:45;;;;;;;9.00;2.00;;;25.70;47.30;;;;;;5146906;27;20508;-73
2021/06/23 06:34:14;;;;;;;7.20;2.13;;;25.90;46.90;;;;;;5147060;27;20518;-73
2021/06/23 06:36:44;;;;;;;15.83;2.80;;;26.10;47.00;;;;;;5140478;27;20405;-73
2021/06/23 06:39:12;;;;;;;13.53;2.10;;;26.30;46.60;;;;;;5138293;27;20433;-72
2021/06/23 06:41:41;;;;;;;7.30;2.07;;;26.40;46.50;;;;;;5141224;27;20427;-73
2021/06/23 06:44:08;;;;;;;8.07;2.83;;;26.40;47.00;;;;;;5138441;27;20437;-79
2021/06/23 06:46:37;;;;;;;7.70;2.10;;;26.40;47.00;;;;;;5136878;27;20442;-82
2021/06/23 06:49:05;;;;;;;15.43;2.33;;;26.40;46.90;;;;;;5144873;27;20438;-82
2021/06/23 06:51:34;;;;;;;24.53;2.03;;;26.40;46.70;;;;;;5141720;27;20446;-81
2021/06/23 06:54:03;;;;;;;19.50;2.33;;;26.40;46.80;;;;;;5145435;27;20434;-82
2021/06/23 06:56:34;;;;;;;9.83;2.30;;;26.40;46.70;;;;;;5142318;27;20511;-81
2021/06/23 06:59:02;;;;;;;14.93;2.70;;;26.40;46.80;;;;;;5138523;27;20426;-84
2021/06/23 07:01:30;;;;;;;16.70;2.80;;;26.40;46.70;;;;;;5137643;27;20470;-82
2021/06/23 07:03:58;;;;;;;15.37;3.10;;;26.40;46.80;;;;;;5139833;27;20443;-82
2021/06/23 07:06:26;;;;;;;19.90;2.83;;;26.40;46.80;;;;;;5141492;27;20405;-83
2021/06/23 07:08:56;;;;;;;22.13;2.67;;;26.40;46.70;;;;;;5133920;27;20401;-83
2021/06/23 07:11:24;;;;;;;12.50;2.33;;;26.50;46.60;;;;;;5135890;27;20413;-83
2021/06/23 07:13:52;;;;;;;26.43;2.63;;;26.50;46.60;;;;;;5137859;27;20430;-84
2021/06/23 07:16:20;;;;;;;13.27;2.53;;;26.50;46.50;;;;;;5136972;27;20441;-84
2021/06/23 07:18:49;;;;;;;20.43;3.07;;;26.50;46.40;;;;;;5135570;27;20397;-83
2021/06/23 07:21:20;;;;;;;12.13;2.40;;;26.50;46.20;;;;;;5138773;27;20427;-83
2021/06/23 07:23:48;;;;;;;7.63;2.20;;;26.50;46.10;;;;;;5137646;27;20444;-83
2021/06/23 07:26:18;;;;;;;8.30;2.50;;;26.60;46.20;;;;;;5138066;27;20405;-81
2021/06/23 07:28:49;;;;;;;8.80;2.87;;;26.60;46.10;;;;;;5141941;27;20462;-83
2021/06/23 07:31:23;;;;;;;16.83;3.20;;;26.60;45.80;;;;;;5147033;27;20414;-84
2021/06/23 07:33:54;;;;;;;10.17;2.60;;;26.70;46.00;;;;;;5147428;27;20542;-83
2021/06/23 07:36:37;;;;;;;13.13;2.90;;;26.70;45.90;;;;;;5133217;27;20451;-84
2021/06/23 07:39:08;;;;;;;11.87;2.50;;;26.80;46.00;;;;;;5126403;27;20416;-83
2021/06/23 07:41:37;;;;;;;9.07;2.33;;;26.80;45.90;;;;;;5126058;27;20410;-85
2021/06/23 07:44:06;;;;;;;11.70;2.80;;;26.80;45.90;;;;;;5125860;27;20437;-84
2021/06/23 07:46:38;;;;;;;6.27;2.37;;;26.80;45.90;;;;;;5125560;27;20398;-83
2021/06/23 07:49:08;;;;;;;20.33;2.70;;;26.90;45.90;;;;;;5126021;27;20422;-84
2021/06/23 07:51:45;;;;;;;10.97;2.60;;;26.90;45.90;;;;;;5125571;27;20445;-84
2021/06/23 07:54:24;;;;;;;4.90;2.20;;;27.00;45.80;;;;;;5129396;27;20419;-84
2021/06/23 08:08:37;;;;;;;6.00;2.00;;;26.90;45.80;;;;;;5125783;27;20416;-82
2021/06/23 08:11:15;;;;;;;5.80;2.37;;;26.90;45.80;;;;;;5125230;27;20486;-82
2021/06/23 08:13:45;;;;;;;8.27;2.10;;;26.90;45.70;;;;;;5125072;27;20435;-83
2021/06/23 08:16:13;;;;;;;7.17;2.50;;;26.90;45.60;;;;;;5124878;27;20434;-83
2021/06/23 08:18:41;;;;;;;8.33;2.00;;;26.90;45.80;;;;;;5125715;27;20467;-83
2021/06/23 08:21:12;;;;;;;4.80;2.20;;;26.90;45.70;;;;;;5131030;27;20393;-84
2021/06/23 08:23:40;;;;;;;3.93;1.83;;;26.80;45.80;;;;;;5141358;27;20417;-82
2021/06/23 08:26:08;;;;;;;8.47;2.43;;;26.80;45.80;;;;;;5152573;27;20456;-82
2021/06/23 08:28:36;;;;;;;6.63;2.60;;;26.80;45.80;;;;;;5145411;27;20472;-81
2021/06/23 08:31:08;;;;;;;6.00;2.00;;;26.80;45.80;;;;;;5142799;27;20417;-81
2021/06/23 08:33:36;;;;;;;6.60;2.23;;;26.80;45.70;;;;;;5145459;27;20451;-83
2021/06/23 08:36:05;;;;;;;4.70;1.90;;;26.80;45.80;;;;;;5137998;27;20439;-83
2021/06/23 08:38:33;;;;;;;10.53;2.43;;;26.80;45.70;;;;;;5125127;27;20443;-82
2021/06/23 08:41:02;;;;;;;5.40;1.87;;;26.80;45.80;;;;;;5141622;27;20416;-82
2021/06/23 08:43:31;;;;;;;5.17;2.00;;;26.80;45.80;;;;;;5124350;27;20413;-80
2021/06/23 08:46:02;;;;;;;3.63;1.90;;;26.90;45.80;;;;;;5124514;27;20478;-83
2021/06/23 08:48:32;;;;;;;5.43;2.37;;;26.90;45.70;;;;;;5125104;27;20475;-83
2021/06/23 08:51:07;;;;;;;5.20;2.03;;;26.90;45.60;;;;;;5122269;27;20477;-84
2021/06/23 08:53:35;;;;;;;6.47;2.43;;;26.90;45.60;;;;;;5115569;27;20491;-84
2021/06/23 08:56:05;;;;;;;4.20;2.10;;;26.90;45.40;;;;;;5125060;28;20416;-82
2021/06/23 08:58:33;;;;;;;8.03;2.27;;;26.90;45.40;;;;;;5124717;28;20474;-84
2021/06/23 09:01:01;;;;;;;6.90;2.00;;;26.90;45.40;;;;;;5124971;28;20413;-82
2021/06/23 09:03:29;;;;;;;7.03;1.97;;;27.00;45.40;;;;;;5124622;28;20436;-82
2021/06/23 09:06:00;;;;;;;4.83;2.10;;;27.00;45.40;;;;;;5124745;28;20473;-82
2021/06/23 09:08:33;;;;;;;7.70;2.10;;;27.00;45.40;;;;;;5109196;28;20415;-83
2021/06/23 09:11:02;;;;;;;3.33;2.13;;;27.00;45.30;;;;;;5104273;28;20410;-83
2021/06/23 09:13:30;;;;;;;3.93;2.07;;;27.10;45.40;;;;;;5104640;28;20461;-82
2021/06/23 09:16:00;;;;;;;12.33;2.43;;;27.10;45.30;;;;;;5104670;28;20489;-85
2021/06/23 09:18:29;;;;;;;3.83;1.77;;;27.20;45.30;;;;;;5105012;28;20414;-83
2021/06/23 09:21:01;;;;;;;4.23;1.87;;;27.20;45.20;;;;;;5104771;28;20491;-82
2021/06/23 09:23:43;;;;;;;2.60;1.70;;;27.20;45.10;;;;;;5104668;28;20475;-82
2021/06/23 09:26:12;;;;;;;3.53;1.93;;;27.20;45.10;;;;;;5124016;27;20470;-82
2021/06/23 09:28:40;;;;;;;6.27;1.83;;;27.20;45.20;;;;;;5125952;27;20402;-81
2021/06/23 09:31:09;;;;;;;5.80;2.00;;;27.20;45.10;;;;;;5121506;28;20526;-82
2021/06/23 09:33:38;;;;;;;6.57;1.73;;;27.10;45.20;;;;;;5120160;27;20708;-82
2021/06/23 09:36:08;;;;;;;3.50;1.70;;;27.10;45.10;;;;;;5121482;27;20434;-83
2021/06/23 09:38:56;;;;;;;2.80;1.60;;;27.10;45.20;;;;;;5108509;28;20526;-82
2021/06/23 09:41:26;;;;;;;9.90;2.07;;;27.10;45.30;;;;;;5108025;28;20416;-83
2021/06/23 09:44:04;;;;;;;5.77;2.00;;;27.20;45.20;;;;;;5108097;28;20459;-83
2021/06/23 09:46:33;;;;;;;5.13;2.10;;;27.20;45.20;;;;;;5116812;27;20497;-82
2021/06/23 09:49:06;;;;;;;4.57;1.90;;;27.10;45.10;;;;;;5139280;27;20424;-82
2021/06/23 09:51:49;;;;;;;4.97;1.80;;;27.10;45.30;;;;;;5133172;27;20405;-83
2021/06/23 09:54:18;;;;;;;4.23;2.10;;;27.10;45.20;;;;;;5127944;27;20398;-81
2021/06/23 09:57:10;;;;;;;5.27;2.37;;;27.10;45.20;;;;;;5128496;27;20462;-82
2021/06/23 09:59:39;;;;;;;3.30;2.03;;;27.10;45.20;;;;;;5128364;27;20413;-82
2021/06/23 10:02:21;;;;;;;3.43;1.47;;;27.10;45.20;;;;;;5129210;27;20386;-82
2021/06/23 10:04:49;;;;;;;5.93;1.90;;;27.10;45.20;;;;;;5110020;28;20527;-83
2021/06/23 10:07:40;;;;;;;3.03;1.80;;;27.10;45.10;;;;;;5108506;27;20454;-82
2021/06/23 10:10:10;;;;;;;2.40;1.47;;;27.20;45.20;;;;;;5107883;28;20483;-82
2021/06/23 10:12:40;;;;;;;3.60;1.67;;;27.20;45.10;;;;;;5108185;28;20428;-82
2021/06/23 10:15:08;;;;;;;2.17;1.97;;;27.20;45.00;;;;;;5107995;28;20405;-85
2021/06/23 10:17:38;;;;;;;5.83;1.97;;;27.20;45.00;;;;;;5107584;28;20489;-83
2021/06/23 10:20:07;;;;;;;1.37;1.27;;;27.30;44.90;;;;;;5106944;28;20436;-83
2021/06/23 10:22:35;;;;;;;3.10;1.70;;;27.30;44.90;;;;;;5106856;28;20501;-82
2021/06/23 10:25:06;;;;;;;2.83;1.80;;;27.30;44.80;;;;;;5107441;28;20399;-82
2021/06/23 10:27:35;;;;;;;12.47;1.70;;;27.40;44.80;;;;;;5122983;27;20408;-83
2021/06/23 10:30:03;;;;;;;2.07;1.50;;;27.40;44.70;;;;;;5137755;27;20427;-82
2021/06/23 10:32:31;;;;;;;8.20;1.93;;;27.50;44.70;;;;;;5142499;27;20507;-82
2021/06/23 10:35:00;;;;;;;5.83;2.10;;;27.50;44.60;;;;;;5120353;27;20456;-82
2021/06/23 10:37:32;;;;;;;3.40;1.77;;;27.60;44.50;;;;;;5134729;27;20459;-82
2021/06/23 10:40:00;;;;;;;3.10;1.83;;;27.60;44.40;;;;;;5128981;27;20462;-81
2021/06/23 10:42:31;;;;;;;5.03;1.73;;;27.70;44.40;;;;;;5127025;27;20402;-82
2021/06/23 10:44:59;;;;;;;6.53;2.00;;;27.80;44.10;;;;;;5127676;27;20401;-82
2021/06/23 10:47:33;;;;;;;2.90;1.60;;;28.00;44.00;;;;;;5118900;27;20506;-81
2021/06/23 10:50:02;;;;;;;2.83;1.87;;;28.20;43.70;;;;;;5130880;27;20405;-79
2021/06/23 10:52:37;;;;;;;6.20;1.70;;;28.40;43.30;;;;;;5148856;27;20453;-79
2021/06/23 10:55:08;;;;;;;6.03;1.63;;;28.60;43.10;;;;;;5124058;27;20462;-79
2021/06/23 10:57:43;;;;;;;3.87;1.37;;;28.80;43.20;;;;;;5138878;27;20422;-79
2021/06/23 11:00:31;;;;;;;1.60;1.50;;;29.20;42.50;;;;;;5109981;27;20508;-78
2021/06/23 11:03:05;;;;;;;4.00;1.60;;;29.30;41.90;;;;;;5111401;27;20431;-78
2021/06/23 11:05:44;;;;;;;5.30;1.57;;;29.50;41.90;;;;;;5126853;27;20415;-79
2021/06/23 11:08:25;;;;;;;2.30;1.73;;;29.50;41.60;;;;;;5126856;27;20528;-79
2021/06/23 11:10:54;;;;;;;2.63;1.60;;;29.60;41.40;;;;;;5135213;27;20495;-79
2021/06/23 11:13:24;;;;;;;2.80;1.43;;;29.70;41.50;;;;;;5126613;27;20431;-79
2021/06/23 11:15:53;;;;;;;4.93;1.67;;;29.70;41.40;;;;;;5126040;27;20435;-78
2021/06/23 11:18:43;;;;;;;5.00;1.30;;;29.80;41.40;;;;;;5124295;27;20454;-80
2021/06/23 11:21:16;;;;;;;5.33;1.57;;;29.80;40.70;;;;;;5133847;27;20512;-83
2021/06/23 11:23:46;;;;;;;2.47;1.70;;;29.80;40.70;;;;;;5130635;27;20500;-77
2021/06/23 11:26:49;;;;;;;7.20;1.30;;;29.90;40.50;;;;;;5138151;27;20465;-79
2021/06/23 11:29:38;;;;;;;3.90;1.47;;;30.00;40.40;;;;;;5127500;27;20457;-85
2021/06/23 11:32:10;;;;;;;10.40;1.70;;;30.00;39.90;;;;;;5145410;27;20439;-79
2021/06/23 11:34:55;;;;;;;4.33;1.77;;;30.00;39.50;;;;;;5146593;27;20430;-80
2021/06/23 11:37:29;;;;;;;8.07;1.70;;;30.00;39.80;;;;;;5126717;27;20446;-83
2021/06/23 11:40:17;;;;;;;7.60;1.90;;;30.10;39.80;;;;;;5125027;27;20430;-82
2021/06/23 11:42:45;;;;;;;12.90;2.17;;;30.10;40.00;;;;;;5125278;27;20428;-80
2021/06/23 11:45:17;;;;;;;15.50;2.40;;;30.00;39.70;;;;;;5126142;27;20442;-84
2021/06/23 11:47:45;;;;;;;8.83;2.07;;;29.80;39.80;;;;;;5104343;28;20580;-80
2021/06/23 11:50:14;;;;;;;12.57;2.27;;;29.60;40.00;;;;;;5121878;27;20521;-80
2021/06/23 11:52:41;;;;;;;6.23;1.80;;;29.40;40.20;;;;;;5123540;27;20538;-80
2021/06/23 11:55:11;;;;;;;6.77;2.10;;;29.20;40.10;;;;;;5125602;27;20423;-73
2021/06/23 11:57:39;;;;;;;2.80;1.50;;;29.00;40.10;;;;;;5123399;27;20412;-74
2021/06/23 12:00:08;;;;;;;2.40;1.50;;;28.80;40.20;;;;;;5124400;27;20450;-73
2021/06/23 12:02:38;;;;;;;3.00;1.93;;;28.60;40.30;;;;;;5124224;27;20425;-73
2021/06/23 12:05:07;;;;;;;3.40;2.00;;;28.60;40.40;;;;;;5124589;27;20402;-74
2021/06/23 12:07:35;;;;;;;5.30;2.07;;;28.50;40.30;;;;;;5120285;27;20450;-73
2021/06/23 12:10:04;;;;;;;3.37;1.70;;;28.40;40.50;;;;;;5103697;28;20463;-73
2021/06/23 12:12:31;;;;;;;3.00;1.50;;;28.30;40.40;;;;;;5103847;28;20431;-73
2021/06/23 12:14:59;;;;;;;4.70;1.50;;;28.20;40.50;;;;;;5104019;28;20428;-74
2021/06/23 12:17:27;;;;;;;3.47;1.50;;;28.20;40.50;;;;;;5103561;28;20424;-74
2021/06/23 12:19:56;;;;;;;3.47;1.83;;;28.20;40.50;;;;;;5104019;28;20498;-74
2021/06/23 12:22:25;;;;;;;2.50;1.70;;;28.20;40.50;;;;;;5103397;28;20499;-73
2021/06/23 12:24:53;;;;;;;1.50;1.20;;;28.10;40.50;;;;;;5103726;28;20419;-73
2021/06/23 12:27:21;;;;;;;2.10;1.57;;;28.10;40.50;;;;;;5103184;28;20473;-74
2021/06/23 12:29:49;;;;;;;1.60;1.30;;;28.10;40.50;;;;;;5103619;28;20521;-74
2021/06/23 12:32:17;;;;;;;1.93;1.57;;;28.00;40.40;;;;;;5103004;28;20468;-74
2021/06/23 12:34:46;;;;;;;3.00;1.60;;;28.00;40.60;;;;;;5103345;28;20436;-73
2021/06/23 12:37:15;;;;;;;3.37;1.80;;;27.90;40.60;;;;;;5103508;28;20436;-74
2021/06/23 12:39:43;;;;;;;2.80;1.63;;;27.90;40.80;;;;;;5103597;28;20443;-74
2021/06/23 12:42:11;;;;;;;4.33;2.03;;;27.90;40.80;;;;;;5103099;28;20510;-74
2021/06/23 12:44:39;;;;;;;1.83;1.40;;;27.80;40.80;;;;;;5103002;28;20410;-73
2021/06/23 12:47:07;;;;;;;2.03;1.43;;;27.80;40.90;;;;;;5103080;28;20471;-73
2021/06/23 12:49:35;;;;;;;1.60;1.50;;;27.80;40.90;;;;;;5102727;28;20490;-74
2021/06/23 12:52:03;;;;;;;1.63;1.53;;;27.70;40.90;;;;;;5102725;28;20423;-74
2021/06/23 12:54:32;;;;;;;1.70;1.60;;;27.80;40.90;;;;;;5103456;28;20418;-74
2021/06/23 12:57:00;;;;;;;1.80;1.60;;;27.70;40.90;;;;;;5103157;28;20447;-74
2021/06/23 12:59:30;;;;;;;2.20;1.83;;;27.70;40.90;;;;;;5102625;28;20443;-74
2021/06/23 13:01:58;;;;;;;2.23;1.73;;;27.70;41.00;;;;;;5102886;28;20435;-74
2021/06/23 13:04:26;;;;;;;3.63;1.60;;;27.70;40.90;;;;;;5103236;28;20414;-74
2021/06/23 13:06:54;;;;;;;3.03;1.50;;;27.70;40.70;;;;;;5102465;28;20468;-73
2021/06/23 13:09:22;;;;;;;2.60;1.50;;;27.70;40.80;;;;;;5104667;28;20424;-74
2021/06/23 13:11:51;;;;;;;1.83;1.73;;;27.70;40.80;;;;;;5107729;28;20444;-74